Time;durP1;ratioP1;P1;durP2;ratioP2;P2;SDS_P1;SDS_P2;PMS_P1;PMS_P2;Temp;Humidity;BMP_temperature;BMP_pressure;BME280_temperature;BME280_humidity;BME280_pressure;Samples;Min_cycle;Max_cycle;Signal;HPM_P1;HPM_P2
2022/10/05 00:02:23;;;;;;;6.70;3.70;;;;;;;;;;5028272;28;20052;-68
2022/10/05 00:04:55;;;;;;;8.43;4.00;;;;;;;;;;5028460;28;20401;-68
2022/10/05 00:07:22;;;;;;;6.88;4.05;;;;;;;;;;5028108;28;20048;-68
2022/10/05 00:09:55;;;;;;;8.00;4.03;;;;;;;;;;5009836;28;20034;-68
2022/10/05 00:12:21;;;;;;;8.15;4.00;;;;;;;;;;5010170;28;20049;-68
2022/10/05 00:14:50;;;;;;;8.00;4.00;;;;;;;;;;5032271;28;20038;-68
2022/10/05 00:17:23;;;;;;;6.57;4.05;;;;;;;;;;5063914;28;20028;-69
2022/10/05 00:19:52;;;;;;;6.65;3.75;;;;;;;;;;5068104;28;20036;-68
2022/10/05 00:22:27;;;;;;;7.80;4.03;;;;;;;;;;5067496;28;20037;-68
2022/10/05 00:24:56;;;;;;;8.10;4.18;;;;;;;;;;5049175;28;20040;-68
2022/10/05 00:27:30;;;;;;;6.53;4.20;;;;;;;;;;5067602;28;20032;-68
2022/10/05 00:29:57;;;;;;;;;;;;;;;;;;5067796;28;20032;-68
2022/10/05 00:32:22;;;;;;;6.93;3.95;;;;;;;;;;5067007;28;20554;-69
2022/10/05 00:34:48;;;;;;;6.82;3.92;;;;;;;;;;5067520;28;20028;-68
2022/10/05 00:37:13;;;;;;;8.70;4.32;;;;;;;;;;5040969;28;20067;-68
2022/10/05 00:39:40;;;;;;;8.98;4.30;;;;;;;;;;5043959;28;20040;-68
2022/10/05 00:42:29;;;;;;;8.55;4.40;;;;;;;;;;5051065;28;20044;-68
2022/10/05 00:45:09;;;;;;;7.93;4.40;;;;;;;;;;5067177;28;20063;-68
2022/10/05 00:48:04;;;;;;;8.07;4.13;;;;;;;;;;5067373;28;20451;-68
2022/10/05 00:50:36;;;;;;;8.18;3.80;;;;;;;;;;5066797;28;20102;-68
2022/10/05 00:53:18;;;;;;;8.20;3.63;;;;;;;;;;5067613;28;20056;-68
2022/10/05 00:55:46;;;;;;;7.88;4.00;;;;;;;;;;5047328;28;20088;-68
2022/10/05 00:58:26;;;;;;;6.78;3.85;;;;;;;;;;5047028;28;20076;-68
2022/10/05 01:01:31;;;;;;;7.40;3.53;;;;;;;;;;5028865;28;20565;-68
2022/10/05 01:04:15;;;;;;;7.70;4.05;;;;;;;;;;5016005;28;20041;-68
2022/10/05 01:06:57;;;;;;;10.48;4.43;;;;;;;;;;5046114;28;20060;-68
2022/10/05 01:09:32;;;;;;;7.97;4.20;;;;;;;;;;5026877;28;20037;-68
2022/10/05 01:12:41;;;;;;;7.38;4.15;;;;;;;;;;5026907;28;20081;-68
2022/10/05 01:15:24;;;;;;;6.75;3.55;;;;;;;;;;4993517;28;20060;-68
2022/10/05 01:18:02;;;;;;;6.95;3.90;;;;;;;;;;5027168;28;20542;-69
2022/10/05 01:20:51;;;;;;;6.97;3.80;;;;;;;;;;5034413;28;20045;-68
2022/10/05 01:23:32;;;;;;;8.52;3.85;;;;;;;;;;5027078;28;20018;-68
2022/10/05 01:26:06;;;;;;;7.50;3.80;;;;;;;;;;5027220;28;20029;-68
2022/10/05 01:28:43;;;;;;;8.35;4.60;;;;;;;;;;5029837;28;20045;-68
2022/10/05 01:31:24;;;;;;;9.05;4.50;;;;;;;;;;5045108;28;20037;-68
2022/10/05 01:33:56;;;;;;;8.85;4.38;;;;;;;;;;5048444;28;20041;-68
2022/10/05 01:36:35;;;;;;;7.38;4.10;;;;;;;;;;5046568;28;20032;-68
2022/10/05 01:39:00;;;;;;;8.63;4.50;;;;;;;;;;5047647;28;20774;-68
2022/10/05 01:41:45;;;;;;;8.90;4.18;;;;;;;;;;5065827;28;20227;-68
2022/10/05 01:44:23;;;;;;;8.38;3.95;;;;;;;;;;5048090;28;20051;-68
2022/10/05 01:47:13;;;;;;;8.73;4.65;;;;;;;;;;5066774;28;20053;-68
2022/10/05 01:49:41;;;;;;;7.63;4.47;;;;;;;;;;5066610;28;20521;-68
2022/10/05 01:52:26;;;;;;;10.00;4.68;;;;;;;;;;5023685;28;20187;-68
2022/10/05 01:55:07;;;;;;;9.15;4.50;;;;;;;;;;5015516;28;20074;-68
2022/10/05 01:57:47;;;;;;;9.13;4.20;;;;;;;;;;5026238;28;20137;-68
2022/10/05 02:00:16;;;;;;;8.63;4.63;;;;;;;;;;5024468;28;20056;-68
2022/10/05 02:02:46;;;;;;;7.88;4.78;;;;;;;;;;5024636;28;20534;-68
2022/10/05 02:05:18;;;;;;;11.07;4.40;;;;;;;;;;5059348;28;20452;-68
2022/10/05 02:08:12;;;;;;;9.38;4.88;;;;;;;;;;5066631;28;20047;-68
2022/10/05 02:11:03;;;;;;;9.38;4.68;;;;;;;;;;5052427;28;20055;-68
2022/10/05 02:13:43;;;;;;;9.00;4.25;;;;;;;;;;5046748;28;20136;-68
2022/10/05 02:16:14;;;;;;;8.85;4.63;;;;;;;;;;5065866;28;20036;-68
2022/10/05 02:18:48;;;;;;;12.50;4.78;;;;;;;;;;5048338;28;20044;-68
2022/10/05 02:21:14;;;;;;;9.73;5.20;;;;;;;;;;5047809;28;20113;-68
2022/10/05 02:23:43;;;;;;;8.45;4.57;;;;;;;;;;5047187;28;20036;-68
2022/10/05 02:26:11;;;;;;;10.05;4.68;;;;;;;;;;5066100;28;20025;-68
2022/10/05 02:28:54;;;;;;;9.88;4.78;;;;;;;;;;5066744;28;20032;-68
2022/10/05 02:31:34;;;;;;;8.23;4.93;;;;;;;;;;5047252;28;20041;-68
2022/10/05 02:34:28;;;;;;;9.27;4.75;;;;;;;;;;5047260;28;20766;-68
2022/10/05 02:37:34;;;;;;;9.35;4.80;;;;;;;;;;5066085;28;20082;-68
2022/10/05 02:40:27;;;;;;;9.60;4.63;;;;;;;;;;5035157;28;20033;-68
2022/10/05 02:42:55;;;;;;;9.27;4.70;;;;;;;;;;5043586;28;20786;-68
2022/10/05 02:45:44;;;;;;;8.63;4.55;;;;;;;;;;5033758;28;20632;-68
2022/10/05 02:48:36;;;;;;;6.65;4.18;;;;;;;;;;5025768;28;20129;-68
2022/10/05 02:51:14;;;;;;;9.80;4.55;;;;;;;;;;5029549;28;20053;-68
2022/10/05 02:54:02;;;;;;;10.35;4.43;;;;;;;;;;5050150;28;20087;-68
2022/10/05 02:56:54;;;;;;;7.47;4.25;;;;;;;;;;5028360;28;20465;-68
2022/10/05 02:59:39;;;;;;;12.98;4.93;;;;;;;;;;5049000;28;20422;-68
2022/10/05 03:02:21;;;;;;;6.82;3.38;;;;;;;;;;5027639;28;20044;-68
2022/10/05 03:04:55;;;;;;;6.30;4.32;;;;;;;;;;5069497;28;20094;-68
2022/10/05 03:07:28;;;;;;;9.02;3.90;;;;;;;;;;5050684;28;20518;-68
2022/10/05 03:10:12;;;;;;;6.38;3.88;;;;;;;;;;5051228;28;20060;-68
2022/10/05 03:12:40;;;;;;;;;;;;;;;;;;5069542;28;20048;-68
2022/10/05 03:15:32;;;;;;;7.97;3.45;;;;;;;;;;5058681;28;20003;-68
2022/10/05 03:18:11;;;;;;;6.40;3.40;;;;;;;;;;5049153;28;20806;-68
2022/10/05 03:20:47;;;;;;;8.02;4.13;;;;;;;;;;5048765;28;20068;-68
2022/10/05 03:23:30;;;;;;;6.78;3.40;;;;;;;;;;5047278;28;20033;-68
2022/10/05 03:26:10;;;;;;;8.40;3.97;;;;;;;;;;5049405;28;20460;-68
2022/10/05 03:28:59;;;;;;;5.72;3.30;;;;;;;;;;5049191;28;20065;-68
2022/10/05 03:31:57;;;;;;;6.80;3.53;;;;;;;;;;5048615;28;20057;-68
2022/10/05 03:34:36;;;;;;;5.50;3.22;;;;;;;;;;5048753;28;20474;-68
2022/10/05 03:37:08;;;;;;;6.03;3.42;;;;;;;;;;5063056;28;20688;-68
2022/10/05 03:39:45;;;;;;;5.95;3.25;;;;;;;;;;5059537;28;20055;-68
2022/10/05 03:42:17;;;;;;;5.72;3.67;;;;;;;;;;5030250;28;20037;-68
2022/10/05 03:44:59;;;;;;;5.90;3.50;;;;;;;;;;5048728;28;20043;-68
2022/10/05 03:47:42;;;;;;;7.65;3.38;;;;;;;;;;5052340;28;20028;-68
2022/10/05 03:50:29;;;;;;;6.03;3.80;;;;;;;;;;5030291;28;20548;-68
2022/10/05 03:53:13;;;;;;;6.25;3.40;;;;;;;;;;5048818;28;20112;-68
2022/10/05 03:55:44;;;;;;;5.93;3.22;;;;;;;;;;5030616;28;20654;-68
2022/10/05 03:58:25;;;;;;;8.35;3.70;;;;;;;;;;5048274;28;20487;-68
2022/10/05 04:00:55;;;;;;;5.55;3.42;;;;;;;;;;5048366;28;20097;-68
2022/10/05 04:03:29;;;;;;;7.35;3.42;;;;;;;;;;5029484;28;20399;-68
2022/10/05 04:06:00;;;;;;;6.57;3.70;;;;;;;;;;5048646;28;20037;-68
2022/10/05 04:08:38;;;;;;;6.90;3.60;;;;;;;;;;5048193;28;20033;-68
2022/10/05 04:11:11;;;;;;;6.47;3.50;;;;;;;;;;5030385;28;20029;-68
2022/10/05 04:13:41;;;;;;;5.50;3.00;;;;;;;;;;5029928;28;20057;-68
2022/10/05 04:16:14;;;;;;;5.95;3.63;;;;;;;;;;5047747;28;20033;-68
2022/10/05 04:18:57;;;;;;;7.03;3.60;;;;;;;;;;5048034;28;20517;-68
2022/10/05 04:21:27;;;;;;;7.05;3.70;;;;;;;;;;5029759;28;20426;-68
2022/10/05 04:23:59;;;;;;;8.65;3.60;;;;;;;;;;5047127;28;20033;-68
2022/10/05 04:26:48;;;;;;;5.68;3.60;;;;;;;;;;5047953;28;20029;-68
2022/10/05 04:29:29;;;;;;;8.18;4.20;;;;;;;;;;5047835;28;20044;-68
2022/10/05 04:32:16;;;;;;;6.53;3.53;;;;;;;;;;5029024;28;20029;-68
2022/10/05 04:34:59;;;;;;;6.68;4.25;;;;;;;;;;5027498;28;20068;-68
2022/10/05 04:37:46;;;;;;;5.57;2.95;;;;;;;;;;5027604;28;20033;-68
2022/10/05 04:40:40;;;;;;;5.80;3.30;;;;;;;;;;5048204;28;20106;-68
2022/10/05 04:43:36;;;;;;;9.27;3.78;;;;;;;;;;5027889;28;20602;-68
2022/10/05 04:46:24;;;;;;;7.43;3.53;;;;;;;;;;5039929;28;20044;-68
2022/10/05 04:49:07;;;;;;;7.22;3.72;;;;;;;;;;5048113;28;20064;-68
2022/10/05 04:51:40;;;;;;;8.30;3.90;;;;;;;;;;5049259;28;20043;-68
2022/10/05 04:54:27;;;;;;;5.90;3.80;;;;;;;;;;5067148;28;20718;-68
2022/10/05 04:57:02;;;;;;;8.38;4.10;;;;;;;;;;5067123;28;20035;-68
2022/10/05 04:59:37;;;;;;;5.45;3.65;;;;;;;;;;5067192;28;20578;-68
2022/10/05 05:02:14;;;;;;;6.90;3.67;;;;;;;;;;5054049;28;20048;-68
2022/10/05 05:05:20;;;;;;;6.28;3.42;;;;;;;;;;5047155;28;20078;-68
2022/10/05 05:08:02;;;;;;;13.63;3.80;;;;;;;;;;5047209;28;20041;-68
2022/10/05 05:10:48;;;;;;;7.13;3.63;;;;;;;;;;5046792;28;20425;-68
2022/10/05 05:13:25;;;;;;;7.43;3.40;;;;;;;;;;5046505;28;20068;-68
2022/10/05 05:16:11;;;;;;;6.07;3.70;;;;;;;;;;5045524;28;20043;-68
2022/10/05 05:19:13;;;;;;;6.35;3.40;;;;;;;;;;5047794;28;20158;-68
2022/10/05 05:22:00;;;;;;;6.45;3.33;;;;;;;;;;5046461;28;20686;-68
2022/10/05 05:24:49;;;;;;;6.38;3.53;;;;;;;;;;5028369;28;20040;-68
2022/10/05 05:27:38;;;;;;;6.82;3.40;;;;;;;;;;5046440;28;20129;-69
2022/10/05 05:30:20;;;;;;;5.97;3.63;;;;;;;;;;5046102;28;20060;-68
2022/10/05 05:33:17;;;;;;;5.72;3.42;;;;;;;;;;5045700;28;20037;-69
2022/10/05 05:36:00;;;;;;;6.07;3.28;;;;;;;;;;5046588;28;20506;-68
2022/10/05 05:38:34;;;;;;;7.55;3.40;;;;;;;;;;5046707;28;20551;-68
2022/10/05 05:40:59;;;;;;;;;;;;;;;;;;5032903;28;20017;-68
2022/10/05 05:43:58;;;;;;;4.57;3.10;;;;;;;;;;5026449;28;19999;-68
2022/10/05 05:46:34;;;;;;;5.38;2.80;;;;;;;;;;5003258;28;20289;-68
2022/10/05 05:49:06;;;;;;;6.25;3.00;;;;;;;;;;5008655;28;20037;-68
2022/10/05 05:51:36;;;;;;;6.25;3.47;;;;;;;;;;5026364;28;20038;-68
2022/10/05 05:54:29;;;;;;;6.30;3.38;;;;;;;;;;5028195;28;20034;-68
2022/10/05 05:57:06;;;;;;;7.30;3.20;;;;;;;;;;5034220;28;20132;-68
2022/10/05 05:59:45;;;;;;;6.75;3.42;;;;;;;;;;5019851;28;20063;-68
2022/10/05 06:02:16;;;;;;;10.13;2.97;;;;;;;;;;5045253;28;20035;-68
2022/10/05 06:04:51;;;;;;;8.65;3.10;;;;;;;;;;5027887;28;20029;-68
2022/10/05 06:07:21;;;;;;;4.93;3.38;;;;;;;;;;5027514;28;20029;-68
2022/10/05 06:10:01;;;;;;;8.05;3.45;;;;;;;;;;5044481;28;20056;-68
2022/10/05 06:12:33;;;;;;;4.95;2.92;;;;;;;;;;5026982;28;20053;-68
2022/10/05 06:15:15;;;;;;;5.82;3.13;;;;;;;;;;5041271;28;20041;-68
2022/10/05 06:17:51;;;;;;;5.72;2.90;;;;;;;;;;5023384;28;20046;-68
2022/10/05 06:20:27;;;;;;;6.20;3.38;;;;;;;;;;5031056;28;20513;-68
2022/10/05 06:22:57;;;;;;;5.22;3.00;;;;;;;;;;5026135;28;20116;-68
2022/10/05 06:25:41;;;;;;;5.25;3.10;;;;;;;;;;5040457;28;20044;-68
2022/10/05 06:28:11;;;;;;;5.22;2.90;;;;;;;;;;5069457;28;20639;-68
2022/10/05 06:30:58;;;;;;;4.57;2.95;;;;;;;;;;5069286;28;20041;-68
2022/10/05 06:33:47;;;;;;;7.68;3.70;;;;;;;;;;5047028;28;20408;-68
2022/10/05 06:36:22;;;;;;;6.75;3.22;;;;;;;;;;5026458;28;20065;-68
2022/10/05 06:39:25;;;;;;;4.72;2.83;;;;;;;;;;5032407;28;20159;-68
2022/10/05 06:42:02;;;;;;;5.80;2.75;;;;;;;;;;5049474;28;20041;-68
2022/10/05 06:44:44;;;;;;;6.25;2.58;;;;;;;;;;5048988;28;20063;-68
2022/10/05 06:47:27;;;;;;;3.83;2.40;;;;;;;;;;5049480;28;20122;-68
2022/10/05 06:50:03;;;;;;;6.95;2.67;;;;;;;;;;5050368;28;20493;-68
2022/10/05 06:53:04;;;;;;;4.18;2.90;;;;;;;;;;5050444;28;20037;-68
2022/10/05 06:55:46;;;;;;;4.88;3.03;;;;;;;;;;5008832;28;20037;-68
2022/10/05 06:58:49;;;;;;;5.95;2.53;;;;;;;;;;5038791;28;20032;-68
2022/10/05 07:01:28;;;;;;;6.18;2.78;;;;;;;;;;5032752;28;20029;-68
2022/10/05 07:04:04;;;;;;;5.75;2.75;;;;;;;;;;5049678;28;20037;-68
2022/10/05 07:06:48;;;;;;;3.42;2.35;;;;;;;;;;5040708;28;20045;-68
2022/10/05 07:09:38;;;;;;;5.03;3.08;;;;;;;;;;5054019;28;20040;-68
2022/10/05 07:12:25;;;;;;;3.72;2.30;;;;;;;;;;5028749;28;20041;-68
2022/10/05 07:15:09;;;;;;;4.90;2.83;;;;;;;;;;5028949;28;20079;-68
2022/10/05 07:18:09;;;;;;;4.18;2.28;;;;;;;;;;5027388;28;20435;-68
2022/10/05 07:20:47;;;;;;;5.15;2.53;;;;;;;;;;5028363;28;20392;-68
2022/10/05 07:23:18;;;;;;;3.53;2.50;;;;;;;;;;5029467;28;20043;-68
2022/10/05 07:26:02;;;;;;;5.88;2.40;;;;;;;;;;5029130;28;20034;-68
2022/10/05 07:28:37;;;;;;;3.92;2.30;;;;;;;;;;5027924;28;20042;-68
2022/10/05 07:31:15;;;;;;;6.88;2.40;;;;;;;;;;5032395;28;20099;-68
2022/10/05 07:33:50;;;;;;;3.17;2.20;;;;;;;;;;5053837;28;20734;-68
2022/10/05 07:39:23;;;;;;;4.97;2.60;;;;;;;;;;5048558;28;20414;-68
2022/10/05 07:41:56;;;;;;;5.00;2.28;;;;;;;;;;5049863;28;20086;-68
2022/10/05 07:44:37;;;;;;;6.18;2.30;;;;;;;;;;5031031;28;20029;-68
2022/10/05 07:47:18;;;;;;;4.35;2.22;;;;;;;;;;5048182;28;20042;-68
2022/10/05 07:49:53;;;;;;;3.92;1.98;;;;;;;;;;5030878;28;20049;-68
2022/10/05 07:52:27;;;;;;;4.57;2.10;;;;;;;;;;5048921;28;20036;-68
2022/10/05 07:55:05;;;;;;;5.00;2.20;;;;;;;;;;5048512;28;20033;-68
2022/10/05 07:57:52;;;;;;;3.95;1.98;;;;;;;;;;5049263;28;20037;-68
2022/10/05 08:00:20;;;;;;;4.03;2.20;;;;;;;;;;5036968;28;20030;-68
2022/10/05 08:02:48;;;;;;;5.07;2.00;;;;;;;;;;5047108;28;20040;-68
2022/10/05 08:05:24;;;;;;;3.08;1.80;;;;;;;;;;5048860;28;20036;-68
2022/10/05 08:07:55;;;;;;;4.05;2.15;;;;;;;;;;5047243;28;20025;-68
2022/10/05 08:10:35;;;;;;;5.65;1.92;;;;;;;;;;5048596;28;20032;-68
2022/10/05 08:13:15;;;;;;;2.90;1.70;;;;;;;;;;5048448;28;20064;-68
2022/10/05 08:15:43;;;;;;;2.90;1.90;;;;;;;;;;5047801;28;20056;-68
2022/10/05 08:18:36;;;;;;;5.22;2.53;;;;;;;;;;5032846;28;20608;-68
2022/10/05 08:21:09;;;;;;;2.80;1.90;;;;;;;;;;5027751;28;20091;-68
2022/10/05 08:24:04;;;;;;;4.63;1.88;;;;;;;;;;5027851;28;20537;-68
2022/10/05 08:26:48;;;;;;;3.20;1.92;;;;;;;;;;5028577;28;20038;-68
2022/10/05 08:29:33;;;;;;;3.08;2.00;;;;;;;;;;5028731;28;20112;-68
2022/10/05 08:32:03;;;;;;;2.72;1.70;;;;;;;;;;5028977;28;20071;-68
2022/10/05 08:34:36;;;;;;;2.85;2.00;;;;;;;;;;5039217;28;20024;-68
2022/10/05 08:37:32;;;;;;;3.50;1.90;;;;;;;;;;5047064;28;20055;-68
2022/10/05 08:40:13;;;;;;;3.40;1.70;;;;;;;;;;5047849;28;20128;-68
2022/10/05 08:42:52;;;;;;;2.85;1.88;;;;;;;;;;5029474;28;20452;-68
2022/10/05 08:45:41;;;;;;;2.50;1.90;;;;;;;;;;5029235;28;20175;-68
2022/10/05 08:48:44;;;;;;;2.47;1.80;;;;;;;;;;5048240;28;20041;-68
2022/10/05 08:51:15;;;;;;;2.33;1.70;;;;;;;;;;5047105;28;20053;-68
2022/10/05 08:54:05;;;;;;;3.08;1.85;;;;;;;;;;5029093;28;20072;-68
2022/10/05 08:56:34;;;;;;;4.05;1.90;;;;;;;;;;5046812;28;20119;-68
2022/10/05 08:59:18;;;;;;;2.28;1.92;;;;;;;;;;5038251;28;20025;-68
2022/10/05 09:01:55;;;;;;;6.28;2.28;;;;;;;;;;5010526;28;20723;-68
2022/10/05 09:04:34;;;;;;;2.10;1.63;;;;;;;;;;5049638;28;20119;-68
2022/10/05 09:07:16;;;;;;;1.80;1.45;;;;;;;;;;5046897;28;20127;-68
2022/10/05 09:09:47;;;;;;;3.67;1.83;;;;;;;;;;5046474;28;20041;-68
2022/10/05 09:12:25;;;;;;;3.78;2.10;;;;;;;;;;5046574;28;20064;-69
2022/10/05 09:15:24;;;;;;;4.05;2.10;;;;;;;;;;5060364;28;20758;-68
2022/10/05 09:18:17;;;;;;;4.38;2.05;;;;;;;;;;5049093;28;20047;-68
2022/10/05 09:20:53;;;;;;;2.22;1.70;;;;;;;;;;5067305;28;20111;-68
2022/10/05 09:23:34;;;;;;;3.10;1.80;;;;;;;;;;5067153;28;20063;-68
2022/10/05 09:26:08;;;;;;;4.45;2.00;;;;;;;;;;5067754;28;20039;-68
2022/10/05 09:28:58;;;;;;;3.92;1.90;;;;;;;;;;5049088;28;20513;-68
2022/10/05 09:31:46;;;;;;;4.97;1.80;;;;;;;;;;5066896;28;20036;-68
2022/10/05 09:34:32;;;;;;;2.92;2.10;;;;;;;;;;5043110;28;20120;-69
2022/10/05 09:37:10;;;;;;;3.35;2.10;;;;;;;;;;5043305;28;20079;-68
2022/10/05 09:40:05;;;;;;;3.30;1.90;;;;;;;;;;5046438;28;20112;-69
2022/10/05 09:43:06;;;;;;;4.65;1.52;;;;;;;;;;5029590;28;20219;-68
2022/10/05 09:45:34;;;;;;;3.70;2.20;;;;;;;;;;4965111;28;20049;-69
2022/10/05 09:48:39;;;;;;;2.22;1.77;;;;;;;;;;5030060;28;20040;-68
2022/10/05 09:51:10;;;;;;;2.72;1.77;;;;;;;;;;5028478;28;20064;-68
2022/10/05 09:54:02;;;;;;;2.63;1.85;;;;;;;;;;5047242;28;20029;-69
2022/10/05 09:56:50;;;;;;;4.90;1.95;;;;;;;;;;5028991;28;24527;-69
2022/10/05 09:59:41;;;;;;;3.50;1.50;;;;;;;;;;5047264;28;20028;-68
2022/10/05 10:02:31;;;;;;;3.47;1.92;;;;;;;;;;5044937;28;20049;-69
2022/10/05 10:05:39;;;;;;;3.85;2.28;;;;;;;;;;5029117;28;20068;-68
2022/10/05 10:08:19;;;;;;;6.07;2.30;;;;;;;;;;5047013;28;20523;-68
2022/10/05 10:11:33;;;;;;;3.97;1.90;;;;;;;;;;5033371;28;20425;-68
2022/10/05 10:14:18;;;;;;;3.67;2.83;;;;;;;;;;5000167;28;20045;-69
2022/10/05 10:17:08;;;;;;;3.13;2.10;;;;;;;;;;5028746;28;20041;-69
2022/10/05 10:19:45;;;;;;;3.92;1.90;;;;;;;;;;5035773;28;20128;-68
2022/10/05 10:22:56;;;;;;;3.67;2.15;;;;;;;;;;5026317;28;20033;-69
2022/10/05 10:25:42;;;;;;;4.28;1.88;;;;;;;;;;5008700;28;20035;-68
2022/10/05 10:28:39;;;;;;;3.70;2.22;;;;;;;;;;5025476;28;20108;-69
2022/10/05 10:31:32;;;;;;;3.88;1.83;;;;;;;;;;5033262;28;20132;-69
2022/10/05 10:34:26;;;;;;;4.40;2.05;;;;;;;;;;5045372;28;20040;-69
2022/10/05 10:36:54;;;;;;;3.67;2.63;;;;;;;;;;5045302;28;20044;-69
2022/10/05 10:39:19;;;;;;;2.58;2.10;;;;;;;;;;5027436;28;20090;-69
2022/10/05 10:42:03;;;;;;;4.13;2.10;;;;;;;;;;5045484;28;20041;-69
2022/10/05 10:44:34;;;;;;;9.30;2.38;;;;;;;;;;5045286;28;20324;-69
2022/10/05 10:47:08;;;;;;;5.20;2.40;;;;;;;;;;5027884;28;20090;-69
2022/10/05 10:49:53;;;;;;;4.35;1.88;;;;;;;;;;5028577;28;20115;-69
2022/10/05 10:52:27;;;;;;;4.65;2.30;;;;;;;;;;5046210;28;20091;-69
2022/10/05 10:55:07;;;;;;;5.80;2.22;;;;;;;;;;5045289;28;20067;-69
2022/10/05 10:57:46;;;;;;;4.88;1.83;;;;;;;;;;5045723;28;20044;-69
2022/10/05 11:00:18;;;;;;;6.07;2.20;;;;;;;;;;5046031;28;20037;-69
2022/10/05 11:03:12;;;;;;;3.20;1.80;;;;;;;;;;5042091;28;20092;-69
2022/10/05 11:05:59;;;;;;;4.85;2.13;;;;;;;;;;5025684;28;20091;-69
2022/10/05 11:08:40;;;;;;;2.85;1.90;;;;;;;;;;5032754;28;20079;-69
2022/10/05 11:11:27;;;;;;;4.35;1.70;;;;;;;;;;5026589;28;20116;-69
2022/10/05 11:14:10;;;;;;;3.17;1.70;;;;;;;;;;5041432;28;20052;-69
2022/10/05 11:17:14;;;;;;;2.78;1.88;;;;;;;;;;5033138;28;20143;-69
2022/10/05 11:19:42;;;;;;;2.45;1.88;;;;;;;;;;5058726;28;20077;-69
2022/10/05 11:22:26;;;;;;;3.08;1.80;;;;;;;;;;5048764;28;20036;-69
2022/10/05 11:25:26;;;;;;;2.50;1.70;;;;;;;;;;5030107;28;20061;-69
2022/10/05 11:28:12;;;;;;;4.68;1.83;;;;;;;;;;5043548;28;20043;-69
2022/10/05 11:30:40;;;;;;;6.82;1.77;;;;;;;;;;5043756;28;20472;-69
2022/10/05 11:33:35;;;;;;;4.47;1.77;;;;;;;;;;5029815;28;20060;-69
2022/10/05 11:36:22;;;;;;;3.30;1.77;;;;;;;;;;5041319;28;20505;-69
2022/10/05 11:39:09;;;;;;;2.97;1.90;;;;;;;;;;5042287;28;20037;-69
2022/10/05 11:42:10;;;;;;;2.75;1.52;;;;;;;;;;5030602;28;20036;-69
2022/10/05 11:45:20;;;;;;;3.25;1.70;;;;;;;;;;5048908;28;20529;-69
2022/10/05 11:48:21;;;;;;;4.28;1.58;;;;;;;;;;5043683;28;20033;-69
2022/10/05 11:51:07;;;;;;;5.18;1.85;;;;;;;;;;5010853;28;20164;-69
2022/10/05 11:53:39;;;;;;;3.58;2.20;;;;;;;;;;5010692;28;20937;-69
2022/10/05 11:56:28;;;;;;;3.85;2.03;;;;;;;;;;5028969;28;20033;-69
2022/10/05 11:59:06;;;;;;;5.70;2.25;;;;;;;;;;5028295;28;20462;-69
2022/10/05 12:01:47;;;;;;;4.70;2.10;;;;;;;;;;5027777;28;20571;-69
2022/10/05 12:04:19;;;;;;;4.72;2.55;;;;;;;;;;5027092;28;20029;-69
2022/10/05 12:07:19;;;;;;;3.25;2.03;;;;;;;;;;5027275;28;20030;-69
2022/10/05 12:10:26;;;;;;;3.83;2.17;;;;;;;;;;5028982;28;20029;-69
2022/10/05 12:13:04;;;;;;;6.13;2.30;;;;;;;;;;5044112;28;20079;-69
2022/10/05 12:16:03;;;;;;;4.30;2.50;;;;;;;;;;5029035;28;20593;-69
2022/10/05 12:18:28;;;;;;;3.65;2.30;;;;;;;;;;5047123;28;20044;-69
2022/10/05 12:21:06;;;;;;;4.78;2.22;;;;;;;;;;5029505;28;20037;-69
2022/10/05 12:23:34;;;;;;;3.63;2.20;;;;;;;;;;5046151;28;20041;-69
2022/10/05 12:26:11;;;;;;;3.03;2.15;;;;;;;;;;5047872;28;20040;-69
2022/10/05 12:29:14;;;;;;;4.07;2.35;;;;;;;;;;5038548;28;20041;-69
2022/10/05 12:31:44;;;;;;;3.25;2.20;;;;;;;;;;5025868;28;20456;-69
2022/10/05 12:34:21;;;;;;;3.35;2.30;;;;;;;;;;5047678;28;20592;-69
2022/10/05 12:37:03;;;;;;;3.47;2.20;;;;;;;;;;5047866;28;20045;-69
2022/10/05 12:39:37;;;;;;;3.05;1.42;;;;;;;;;;5047665;28;20040;-69
2022/10/05 12:42:15;;;;;;;2.83;1.70;;;;;;;;;;5034500;28;20036;-69
2022/10/05 12:45:28;;;;;;;2.30;1.58;;;;;;;;;;5050002;28;20044;-68
2022/10/05 12:48:12;;;;;;;6.20;1.60;;;;;;;;;;4985182;28;20617;-69
2022/10/05 12:50:45;;;;;;;4.80;1.70;;;;;;;;;;5060526;28;20374;-69
2022/10/05 12:53:50;;;;;;;2.88;1.92;;;;;;;;;;5046303;28;20028;-69
2022/10/05 12:56:26;;;;;;;1.92;1.60;;;;;;;;;;5027393;28;20406;-69
2022/10/05 12:59:06;;;;;;;3.28;1.98;;;;;;;;;;5027957;28;20032;-69
2022/10/05 13:01:47;;;;;;;2.45;1.80;;;;;;;;;;5027334;28;20121;-69
2022/10/05 13:04:43;;;;;;;1.90;1.40;;;;;;;;;;5016590;28;20756;-69
2022/10/05 13:07:12;;;;;;;3.58;1.80;;;;;;;;;;5027270;28;20033;-69
2022/10/05 13:09:49;;;;;;;2.45;1.65;;;;;;;;;;5009504;28;20037;-69
2022/10/05 13:12:35;;;;;;;3.33;1.50;;;;;;;;;;5009214;28;20041;-69
2022/10/05 13:15:17;;;;;;;2.28;1.73;;;;;;;;;;5031693;28;20037;-69
2022/10/05 13:18:12;;;;;;;5.47;1.95;;;;;;;;;;5015335;28;20072;-69
2022/10/05 13:20:43;;;;;;;2.80;1.75;;;;;;;;;;5027249;28;20037;-69
2022/10/05 13:23:33;;;;;;;6.78;1.60;;;;;;;;;;5009126;28;20044;-69
2022/10/05 13:26:13;;;;;;;3.22;1.80;;;;;;;;;;5027523;28;20406;-69
2022/10/05 13:29:26;;;;;;;3.00;1.65;;;;;;;;;;5009383;28;20048;-69
2022/10/05 13:31:59;;;;;;;2.78;2.05;;;;;;;;;;5025447;28;20539;-69
2022/10/05 13:34:34;;;;;;;4.95;1.92;;;;;;;;;;5025240;28;20040;-69
2022/10/05 13:37:03;;;;;;;2.85;1.80;;;;;;;;;;5026441;28;20857;-69
2022/10/05 13:39:43;;;;;;;5.28;1.80;;;;;;;;;;5034864;28;20057;-69
2022/10/05 13:42:20;;;;;;;2.70;1.55;;;;;;;;;;5028239;28;20559;-69
2022/10/05 13:45:23;;;;;;;3.08;1.85;;;;;;;;;;5026694;28;20082;-69
2022/10/05 13:48:41;;;;;;;4.70;1.90;;;;;;;;;;5044615;28;20094;-69
2022/10/05 13:51:13;;;;;;;3.88;2.13;;;;;;;;;;5028451;28;20045;-69
2022/10/05 13:53:51;;;;;;;3.45;2.28;;;;;;;;;;5028661;28;20033;-69
2022/10/05 13:56:33;;;;;;;2.65;2.20;;;;;;;;;;5028978;28;20020;-69
2022/10/05 13:59:20;;;;;;;4.40;2.30;;;;;;;;;;5028946;28;20502;-69
2022/10/05 14:01:57;;;;;;;3.80;1.95;;;;;;;;;;5046845;28;20128;-69
2022/10/05 14:04:27;;;;;;;8.25;2.65;;;;;;;;;;5046352;28;20040;-69
2022/10/05 14:06:52;;;;;;;4.85;2.10;;;;;;;;;;5048588;28;20056;-69
2022/10/05 14:09:32;;;;;;;2.78;1.80;;;;;;;;;;5047170;28;20037;-69
2022/10/05 14:12:03;;;;;;;3.42;1.92;;;;;;;;;;5047686;28;20044;-69
2022/10/05 14:14:42;;;;;;;3.03;1.98;;;;;;;;;;5047891;28;20082;-69
2022/10/05 14:17:14;;;;;;;4.07;2.00;;;;;;;;;;5048349;28;20024;-69
2022/10/05 14:19:49;;;;;;;4.65;2.13;;;;;;;;;;5048955;28;20052;-69
2022/10/05 14:22:21;;;;;;;3.63;2.00;;;;;;;;;;5043050;28;20530;-69
2022/10/05 14:24:49;;;;;;;3.42;2.65;;;;;;;;;;5045742;28;20040;-69
2022/10/05 14:27:28;;;;;;;2.85;1.48;;;;;;;;;;5046002;28;20784;-69
2022/10/05 14:30:00;;;;;;;2.45;1.80;;;;;;;;;;5045768;28;20072;-69
2022/10/05 14:32:31;;;;;;;5.05;1.67;;;;;;;;;;5027574;28;20051;-69
2022/10/05 14:35:17;;;;;;;4.43;1.80;;;;;;;;;;5044716;28;20485;-69
2022/10/05 14:37:49;;;;;;;2.42;1.60;;;;;;;;;;5027606;28;20052;-69
2022/10/05 14:40:33;;;;;;;4.85;1.70;;;;;;;;;;5027347;28;20031;-69
2022/10/05 14:43:15;;;;;;;4.75;2.00;;;;;;;;;;5045032;28;20105;-69
2022/10/05 14:45:56;;;;;;;3.03;1.83;;;;;;;;;;5044172;28;20414;-69
2022/10/05 14:48:23;;;;;;;3.88;1.80;;;;;;;;;;5048335;28;20395;-69
2022/10/05 14:50:58;;;;;;;3.63;1.70;;;;;;;;;;5048187;28;20066;-69
2022/10/05 14:53:36;;;;;;;2.55;1.63;;;;;;;;;;5068087;28;20021;-69
2022/10/05 14:56:28;;;;;;;3.50;2.22;;;;;;;;;;5068816;28;20020;-69
2022/10/05 14:59:22;;;;;;;5.65;2.13;;;;;;;;;;5043091;28;20080;-68
2022/10/05 15:02:26;;;;;;;4.20;1.80;;;;;;;;;;5047291;28;20037;-69
2022/10/05 15:05:23;;;;;;;2.50;2.30;;;;;;;;;;5047741;28;20052;-68
2022/10/05 15:07:51;;;;;;;3.35;1.92;;;;;;;;;;5047203;28;20068;-68
2022/10/05 15:10:21;;;;;;;3.00;2.00;;;;;;;;;;5047652;28;20511;-68
2022/10/05 15:12:47;;;;;;;2.33;1.48;;;;;;;;;;5046961;28;20534;-69
2022/10/05 15:15:31;;;;;;;2.38;1.50;;;;;;;;;;5049115;28;20033;-68
2022/10/05 15:18:04;;;;;;;1.95;1.58;;;;;;;;;;5068582;28;20090;-69
2022/10/05 15:20:35;;;;;;;2.70;1.60;;;;;;;;;;5067838;28;20036;-68
2022/10/05 15:23:23;;;;;;;3.20;2.10;;;;;;;;;;5068784;28;20554;-69
2022/10/05 15:26:23;;;;;;;3.03;2.00;;;;;;;;;;5049024;28;20051;-69
2022/10/05 15:28:55;;;;;;;3.47;1.80;;;;;;;;;;5031356;28;20395;-69
2022/10/05 15:31:38;;;;;;;3.53;1.90;;;;;;;;;;5046540;28;20045;-69
2022/10/05 15:34:22;;;;;;;5.60;1.98;;;;;;;;;;5060387;28;20044;-69
2022/10/05 15:37:08;;;;;;;3.58;2.00;;;;;;;;;;5069182;28;20037;-69
2022/10/05 15:39:51;;;;;;;4.00;1.90;;;;;;;;;;5058663;28;20850;-69
2022/10/05 15:42:21;;;;;;;2.80;1.90;;;;;;;;;;5048213;28;20123;-69
2022/10/05 15:45:09;;;;;;;10.15;3.00;;;;;;;;;;5048008;28;20778;-68
2022/10/05 15:48:29;;;;;;;5.45;1.90;;;;;;;;;;5027537;28;20116;-69
2022/10/05 15:51:09;;;;;;;5.90;1.95;;;;;;;;;;5005278;28;20547;-69
2022/10/05 15:56:57;;;;;;;5.40;2.30;;;;;;;;;;5053840;28;20043;-69
2022/10/05 15:59:34;;;;;;;3.08;2.03;;;;;;;;;;5057142;28;20079;-69
2022/10/05 16:02:05;;;;;;;3.90;2.10;;;;;;;;;;5005874;28;20029;-69
2022/10/05 16:04:46;;;;;;;2.25;1.90;;;;;;;;;;5029729;28;20457;-69
2022/10/05 16:10:14;;;;;;;4.15;2.22;;;;;;;;;;5047770;28;20048;-69
2022/10/05 16:12:49;;;;;;;2.75;1.92;;;;;;;;;;5048322;28;20056;-69
2022/10/05 16:15:27;;;;;;;3.15;2.08;;;;;;;;;;5048183;28;20041;-69
2022/10/05 16:18:06;;;;;;;3.13;2.00;;;;;;;;;;5029501;28;20044;-69